sensor_id;sensor_type;location;lat;lon;timestamp;temperature;humidity
67163;DHT22;54092;53.088;8.850;2023-03-01T00:00:53;-0.30;99.90
67163;DHT22;54092;53.088;8.850;2023-03-01T00:03:18;-0.40;99.90
67163;DHT22;54092;53.088;8.850;2023-03-01T00:05:45;-0.40;99.90
67163;DHT22;54092;53.088;8.850;2023-03-01T00:08:11;-0.40;99.90
67163;DHT22;54092;53.088;8.850;2023-03-01T00:10:36;-0.50;99.90
67163;DHT22;54092;53.088;8.850;2023-03-01T00:13:02;-0.50;99.90
67163;DHT22;54092;53.088;8.850;2023-03-01T00:15:27;-0.50;99.90
67163;DHT22;54092;53.088;8.850;2023-03-01T00:17:53;-0.50;99.90
67163;DHT22;54092;53.088;8.850;2023-03-01T00:20:18;-0.60;99.90
67163;DHT22;54092;53.088;8.850;2023-03-01T00:22:44;-0.60;99.90
67163;DHT22;54092;53.088;8.850;2023-03-01T00:25:10;-0.60;99.90
67163;DHT22;54092;53.088;8.850;2023-03-01T00:27:35;-0.60;99.90
67163;DHT22;54092;53.088;8.850;2023-03-01T00:30:01;-0.70;99.90
67163;DHT22;54092;53.088;8.850;2023-03-01T00:32:26;-0.70;99.90
67163;DHT22;54092;53.088;8.850;2023-03-01T00:34:52;-0.70;99.90
67163;DHT22;54092;53.088;8.850;2023-03-01T00:37:24;-0.70;99.90
67163;DHT22;54092;53.088;8.850;2023-03-01T00:39:50;-0.70;99.90
67163;DHT22;54092;53.088;8.850;2023-03-01T00:42:16;-0.70;99.90
67163;DHT22;54092;53.088;8.850;2023-03-01T00:44:42;-0.70;99.90
67163;DHT22;54092;53.088;8.850;2023-03-01T00:47:08;-0.70;99.90
67163;DHT22;54092;53.088;8.850;2023-03-01T00:49:34;-0.70;99.90
67163;DHT22;54092;53.088;8.850;2023-03-01T00:51:59;-0.70;99.90
67163;DHT22;54092;53.088;8.850;2023-03-01T00:54:25;-0.70;99.90
67163;DHT22;54092;53.088;8.850;2023-03-01T00:56:50;-0.80;99.90
67163;DHT22;54092;53.088;8.850;2023-03-01T00:59:16;-0.70;99.90
67163;DHT22;54092;53.088;8.850;2023-03-01T01:01:41;-0.80;99.90
67163;DHT22;54092;53.088;8.850;2023-03-01T01:04:09;-0.80;99.90
67163;DHT22;54092;53.088;8.850;2023-03-01T01:06:38;-0.80;99.90
67163;DHT22;54092;53.088;8.850;2023-03-01T01:09:06;-0.80;99.90
67163;DHT22;54092;53.088;8.850;2023-03-01T01:11:32;-0.80;99.90
67163;DHT22;54092;53.088;8.850;2023-03-01T01:13:58;-0.90;99.90
67163;DHT22;54092;53.088;8.850;2023-03-01T01:16:26;-0.90;99.90
67163;DHT22;54092;53.088;8.850;2023-03-01T01:18:53;-0.90;99.90
67163;DHT22;54092;53.088;8.850;2023-03-01T01:21:21;-0.90;99.90
67163;DHT22;54092;53.088;8.850;2023-03-01T01:23:47;-0.90;99.90
67163;DHT22;54092;53.088;8.850;2023-03-01T01:26:18;-0.90;99.90
67163;DHT22;54092;53.088;8.850;2023-03-01T01:28:44;-1.00;99.90
67163;DHT22;54092;53.088;8.850;2023-03-01T01:31:10;-1.00;99.90
67163;DHT22;54092;53.088;8.850;2023-03-01T01:33:36;-1.00;99.90
67163;DHT22;54092;53.088;8.850;2023-03-01T01:36:03;-1.00;99.90
67163;DHT22;54092;53.088;8.850;2023-03-01T01:38:29;-0.90;99.90
67163;DHT22;54092;53.088;8.850;2023-03-01T01:40:54;-0.90;99.90
67163;DHT22;54092;53.088;8.850;2023-03-01T01:43:29;-0.90;99.90
67163;DHT22;54092;53.088;8.850;2023-03-01T01:46:05;-0.90;99.90
67163;DHT22;54092;53.088;8.850;2023-03-01T01:48:42;-0.90;99.90
67163;DHT22;54092;53.088;8.850;2023-03-01T01:51:18;-0.90;99.90
67163;DHT22;54092;53.088;8.850;2023-03-01T01:53:46;-0.90;99.90
67163;DHT22;54092;53.088;8.850;2023-03-01T01:56:15;-0.90;99.90
67163;DHT22;54092;53.088;8.850;2023-03-01T01:58:42;-1.00;99.90
67163;DHT22;54092;53.088;8.850;2023-03-01T02:01:09;-1.00;99.90
67163;DHT22;54092;53.088;8.850;2023-03-01T02:03:37;-1.00;99.90
67163;DHT22;54092;53.088;8.850;2023-03-01T02:09:05;-1.00;99.90
67163;DHT22;54092;53.088;8.850;2023-03-01T02:11:32;-1.00;99.90
67163;DHT22;54092;53.088;8.850;2023-03-01T02:13:58;-0.90;99.90
67163;DHT22;54092;53.088;8.850;2023-03-01T02:16:25;-0.90;99.90
67163;DHT22;54092;53.088;8.850;2023-03-01T02:18:51;-0.90;99.90
67163;DHT22;54092;53.088;8.850;2023-03-01T02:24:13;-1.00;99.90
67163;DHT22;54092;53.088;8.850;2023-03-01T02:26:47;-1.00;99.90
67163;DHT22;54092;53.088;8.850;2023-03-01T02:29:14;-1.00;99.90
67163;DHT22;54092;53.088;8.850;2023-03-01T02:31:39;-1.00;99.90
67163;DHT22;54092;53.088;8.850;2023-03-01T02:34:18;-1.10;99.90
67163;DHT22;54092;53.088;8.850;2023-03-01T02:36:47;-1.10;99.90
67163;DHT22;54092;53.088;8.850;2023-03-01T02:39:26;-1.10;99.90
67163;DHT22;54092;53.088;8.850;2023-03-01T02:41:54;-1.10;99.90
67163;DHT22;54092;53.088;8.850;2023-03-01T02:44:21;-1.00;99.90
67163;DHT22;54092;53.088;8.850;2023-03-01T02:46:53;-1.10;99.90
67163;DHT22;54092;53.088;8.850;2023-03-01T02:49:31;-1.10;99.90
67163;DHT22;54092;53.088;8.850;2023-03-01T02:55:06;-1.20;99.90
67163;DHT22;54092;53.088;8.850;2023-03-01T02:57:35;-1.20;99.90
67163;DHT22;54092;53.088;8.850;2023-03-01T03:00:06;-1.20;99.90
67163;DHT22;54092;53.088;8.850;2023-03-01T03:02:33;-1.20;99.90
67163;DHT22;54092;53.088;8.850;2023-03-01T03:05:06;-1.20;99.90
67163;DHT22;54092;53.088;8.850;2023-03-01T03:07:37;-1.10;99.90
67163;DHT22;54092;53.088;8.850;2023-03-01T03:10:07;-1.10;99.90
67163;DHT22;54092;53.088;8.850;2023-03-01T03:12:33;-1.10;99.90
67163;DHT22;54092;53.088;8.850;2023-03-01T03:14:58;-1.10;99.90
67163;DHT22;54092;53.088;8.850;2023-03-01T03:17:24;-1.20;99.90
67163;DHT22;54092;53.088;8.850;2023-03-01T03:19:50;-1.10;99.90
67163;DHT22;54092;53.088;8.850;2023-03-01T03:22:15;-1.10;99.90
67163;DHT22;54092;53.088;8.850;2023-03-01T03:24:41;-1.20;99.90
67163;DHT22;54092;53.088;8.850;2023-03-01T03:27:07;-1.10;99.90
67163;DHT22;54092;53.088;8.850;2023-03-01T03:29:33;-1.10;99.90
67163;DHT22;54092;53.088;8.850;2023-03-01T03:31:59;-1.10;99.90
67163;DHT22;54092;53.088;8.850;2023-03-01T03:34:25;-1.10;99.90
67163;DHT22;54092;53.088;8.850;2023-03-01T03:36:54;-1.10;99.90
67163;DHT22;54092;53.088;8.850;2023-03-01T03:39:25;-1.00;99.90
67163;DHT22;54092;53.088;8.850;2023-03-01T03:41:52;-1.10;99.90
67163;DHT22;54092;53.088;8.850;2023-03-01T03:44:18;-1.10;99.90
67163;DHT22;54092;53.088;8.850;2023-03-01T03:46:43;-1.10;99.90
67163;DHT22;54092;53.088;8.850;2023-03-01T03:49:09;-1.10;99.90
67163;DHT22;54092;53.088;8.850;2023-03-01T03:51:34;-1.10;99.90
67163;DHT22;54092;53.088;8.850;2023-03-01T03:53:59;-1.10;99.90
67163;DHT22;54092;53.088;8.850;2023-03-01T03:56:25;-1.10;99.90
67163;DHT22;54092;53.088;8.850;2023-03-01T03:58:54;-1.10;99.90
67163;DHT22;54092;53.088;8.850;2023-03-01T04:01:19;-1.10;99.90
67163;DHT22;54092;53.088;8.850;2023-03-01T04:03:45;-1.20;99.90
67163;DHT22;54092;53.088;8.850;2023-03-01T04:06:13;-1.20;99.90
67163;DHT22;54092;53.088;8.850;2023-03-01T04:08:38;-1.30;99.90
67163;DHT22;54092;53.088;8.850;2023-03-01T04:11:05;-1.30;99.90
67163;DHT22;54092;53.088;8.850;2023-03-01T04:13:49;-1.20;99.90
67163;DHT22;54092;53.088;8.850;2023-03-01T04:16:14;-1.30;99.90
67163;DHT22;54092;53.088;8.850;2023-03-01T04:18:40;-1.20;99.90
67163;DHT22;54092;53.088;8.850;2023-03-01T04:21:05;-1.20;99.90
67163;DHT22;54092;53.088;8.850;2023-03-01T04:23:31;-1.30;99.90
67163;DHT22;54092;53.088;8.850;2023-03-01T04:25:58;-1.30;99.90
67163;DHT22;54092;53.088;8.850;2023-03-01T04:28:26;-1.30;99.90
67163;DHT22;54092;53.088;8.850;2023-03-01T04:30:53;-1.30;99.90
67163;DHT22;54092;53.088;8.850;2023-03-01T04:33:19;-1.30;99.90
67163;DHT22;54092;53.088;8.850;2023-03-01T04:35:44;-1.30;99.90
67163;DHT22;54092;53.088;8.850;2023-03-01T04:38:10;-1.40;99.90
67163;DHT22;54092;53.088;8.850;2023-03-01T04:40:36;-1.40;99.90
67163;DHT22;54092;53.088;8.850;2023-03-01T04:43:03;-1.40;99.90
67163;DHT22;54092;53.088;8.850;2023-03-01T04:45:28;-1.40;99.90
67163;DHT22;54092;53.088;8.850;2023-03-01T04:47:54;-1.40;99.90
67163;DHT22;54092;53.088;8.850;2023-03-01T04:50:20;-1.40;99.90
67163;DHT22;54092;53.088;8.850;2023-03-01T04:52:47;-1.50;99.90
67163;DHT22;54092;53.088;8.850;2023-03-01T04:55:13;-1.40;99.90
67163;DHT22;54092;53.088;8.850;2023-03-01T04:57:38;-1.50;99.90
67163;DHT22;54092;53.088;8.850;2023-03-01T05:00:06;-1.50;99.90
67163;DHT22;54092;53.088;8.850;2023-03-01T05:03:07;-1.50;99.90
67163;DHT22;54092;53.088;8.850;2023-03-01T05:05:34;-1.50;99.90
67163;DHT22;54092;53.088;8.850;2023-03-01T05:08:02;-1.50;99.90
67163;DHT22;54092;53.088;8.850;2023-03-01T05:10:29;-1.50;99.90
67163;DHT22;54092;53.088;8.850;2023-03-01T05:12:55;-1.50;99.90
67163;DHT22;54092;53.088;8.850;2023-03-01T05:15:23;-1.50;99.90
67163;DHT22;54092;53.088;8.850;2023-03-01T05:17:51;-1.50;99.90
67163;DHT22;54092;53.088;8.850;2023-03-01T05:20:17;-1.40;99.90
67163;DHT22;54092;53.088;8.850;2023-03-01T05:22:43;-1.40;99.90
67163;DHT22;54092;53.088;8.850;2023-03-01T05:25:09;-1.40;99.90
67163;DHT22;54092;53.088;8.850;2023-03-01T05:27:35;-1.40;99.90
67163;DHT22;54092;53.088;8.850;2023-03-01T05:30:02;-1.40;99.90
67163;DHT22;54092;53.088;8.850;2023-03-01T05:32:42;-1.40;99.90
67163;DHT22;54092;53.088;8.850;2023-03-01T05:35:10;-1.40;99.90
67163;DHT22;54092;53.088;8.850;2023-03-01T05:37:42;-1.40;99.90
67163;DHT22;54092;53.088;8.850;2023-03-01T05:40:12;-1.50;99.90
67163;DHT22;54092;53.088;8.850;2023-03-01T05:42:42;-1.50;99.90
67163;DHT22;54092;53.088;8.850;2023-03-01T05:45:09;-1.50;99.90
67163;DHT22;54092;53.088;8.850;2023-03-01T05:47:35;-1.50;99.90
67163;DHT22;54092;53.088;8.850;2023-03-01T05:50:01;-1.40;99.90
67163;DHT22;54092;53.088;8.850;2023-03-01T05:52:26;-1.40;99.90
67163;DHT22;54092;53.088;8.850;2023-03-01T05:54:52;-1.40;99.90
67163;DHT22;54092;53.088;8.850;2023-03-01T05:57:17;-1.40;99.90
67163;DHT22;54092;53.088;8.850;2023-03-01T05:59:43;-1.40;99.90
67163;DHT22;54092;53.088;8.850;2023-03-01T06:02:08;-1.40;99.90
67163;DHT22;54092;53.088;8.850;2023-03-01T06:04:34;-1.40;99.90
67163;DHT22;54092;53.088;8.850;2023-03-01T06:06:59;-1.40;99.90
67163;DHT22;54092;53.088;8.850;2023-03-01T06:09:25;-1.40;99.90
67163;DHT22;54092;53.088;8.850;2023-03-01T06:11:51;-1.40;99.90
67163;DHT22;54092;53.088;8.850;2023-03-01T06:14:16;-1.40;99.90
67163;DHT22;54092;53.088;8.850;2023-03-01T06:16:42;-1.40;99.90
67163;DHT22;54092;53.088;8.850;2023-03-01T06:19:07;-1.40;99.90
67163;DHT22;54092;53.088;8.850;2023-03-01T06:21:33;-1.40;99.90
67163;DHT22;54092;53.088;8.850;2023-03-01T06:23:58;-1.40;99.90
67163;DHT22;54092;53.088;8.850;2023-03-01T06:26:24;-1.40;99.90
67163;DHT22;54092;53.088;8.850;2023-03-01T06:28:49;-1.40;99.90
67163;DHT22;54092;53.088;8.850;2023-03-01T06:31:15;-1.30;99.90
67163;DHT22;54092;53.088;8.850;2023-03-01T06:33:40;-1.30;99.90
67163;DHT22;54092;53.088;8.850;2023-03-01T06:36:06;-1.30;99.90
67163;DHT22;54092;53.088;8.850;2023-03-01T06:38:32;-1.30;99.90
67163;DHT22;54092;53.088;8.850;2023-03-01T06:40:58;-1.30;99.90
67163;DHT22;54092;53.088;8.850;2023-03-01T06:43:24;-1.20;99.90
67163;DHT22;54092;53.088;8.850;2023-03-01T06:45:49;-1.30;99.90
67163;DHT22;54092;53.088;8.850;2023-03-01T06:48:15;-1.20;99.90
67163;DHT22;54092;53.088;8.850;2023-03-01T06:50:41;-1.10;99.90
67163;DHT22;54092;53.088;8.850;2023-03-01T06:53:06;-1.10;99.90
67163;DHT22;54092;53.088;8.850;2023-03-01T06:55:32;-0.90;99.90
67163;DHT22;54092;53.088;8.850;2023-03-01T06:57:59;-0.90;99.90
67163;DHT22;54092;53.088;8.850;2023-03-01T07:00:25;-0.70;99.90
67163;DHT22;54092;53.088;8.850;2023-03-01T07:02:51;-0.60;99.90
67163;DHT22;54092;53.088;8.850;2023-03-01T07:05:17;-0.50;99.90
67163;DHT22;54092;53.088;8.850;2023-03-01T07:07:42;-0.40;99.90
67163;DHT22;54092;53.088;8.850;2023-03-01T07:10:09;-0.30;99.90
67163;DHT22;54092;53.088;8.850;2023-03-01T07:12:34;-0.20;99.90
67163;DHT22;54092;53.088;8.850;2023-03-01T07:15:00;-0.10;99.90
67163;DHT22;54092;53.088;8.850;2023-03-01T07:17:25;0.00;99.90
67163;DHT22;54092;53.088;8.850;2023-03-01T07:19:51;0.10;99.90
67163;DHT22;54092;53.088;8.850;2023-03-01T07:22:16;0.20;99.90
67163;DHT22;54092;53.088;8.850;2023-03-01T07:24:43;0.40;99.90
67163;DHT22;54092;53.088;8.850;2023-03-01T07:27:09;0.40;99.90
67163;DHT22;54092;53.088;8.850;2023-03-01T07:29:35;0.50;99.90
67163;DHT22;54092;53.088;8.850;2023-03-01T07:32:02;0.50;99.90
67163;DHT22;54092;53.088;8.850;2023-03-01T07:34:28;0.60;99.90
67163;DHT22;54092;53.088;8.850;2023-03-01T07:36:53;0.70;99.90
67163;DHT22;54092;53.088;8.850;2023-03-01T07:39:19;0.70;99.90
67163;DHT22;54092;53.088;8.850;2023-03-01T07:41:44;0.70;99.90
67163;DHT22;54092;53.088;8.850;2023-03-01T07:44:10;0.80;99.90
67163;DHT22;54092;53.088;8.850;2023-03-01T07:46:36;0.90;99.90
67163;DHT22;54092;53.088;8.850;2023-03-01T07:49:01;1.10;99.90
67163;DHT22;54092;53.088;8.850;2023-03-01T07:51:27;1.20;99.90
67163;DHT22;54092;53.088;8.850;2023-03-01T07:53:52;1.20;99.90
67163;DHT22;54092;53.088;8.850;2023-03-01T07:56:18;1.20;99.90
67163;DHT22;54092;53.088;8.850;2023-03-01T07:58:45;1.20;99.90
67163;DHT22;54092;53.088;8.850;2023-03-01T08:01:13;1.30;99.90
67163;DHT22;54092;53.088;8.850;2023-03-01T08:03:39;1.40;99.90
67163;DHT22;54092;53.088;8.850;2023-03-01T08:06:07;1.50;99.90
67163;DHT22;54092;53.088;8.850;2023-03-01T08:08:34;1.60;99.90
67163;DHT22;54092;53.088;8.850;2023-03-01T08:11:01;1.80;99.90
67163;DHT22;54092;53.088;8.850;2023-03-01T08:13:27;1.90;99.90
67163;DHT22;54092;53.088;8.850;2023-03-01T08:15:53;2.10;99.90
67163;DHT22;54092;53.088;8.850;2023-03-01T08:18:20;2.20;99.90
67163;DHT22;54092;53.088;8.850;2023-03-01T08:20:46;2.40;99.90
67163;DHT22;54092;53.088;8.850;2023-03-01T08:23:12;2.70;99.90
67163;DHT22;54092;53.088;8.850;2023-03-01T08:25:38;3.10;99.90
67163;DHT22;54092;53.088;8.850;2023-03-01T08:28:04;3.20;99.90
67163;DHT22;54092;53.088;8.850;2023-03-01T08:30:30;3.30;99.90
67163;DHT22;54092;53.088;8.850;2023-03-01T08:32:55;3.30;99.90
67163;DHT22;54092;53.088;8.850;2023-03-01T08:35:21;3.50;99.90
67163;DHT22;54092;53.088;8.850;2023-03-01T08:37:46;3.70;99.90
67163;DHT22;54092;53.088;8.850;2023-03-01T08:40:12;4.00;99.90
67163;DHT22;54092;53.088;8.850;2023-03-01T08:42:39;4.10;99.90
67163;DHT22;54092;53.088;8.850;2023-03-01T08:45:05;4.30;99.90
67163;DHT22;54092;53.088;8.850;2023-03-01T08:47:31;4.40;99.90
67163;DHT22;54092;53.088;8.850;2023-03-01T08:49:59;4.50;99.90
67163;DHT22;54092;53.088;8.850;2023-03-01T08:52:24;4.60;99.90
67163;DHT22;54092;53.088;8.850;2023-03-01T08:54:50;4.90;99.90
67163;DHT22;54092;53.088;8.850;2023-03-01T08:57:15;5.70;99.90
67163;DHT22;54092;53.088;8.850;2023-03-01T08:59:41;6.20;99.90
67163;DHT22;54092;53.088;8.850;2023-03-01T09:02:12;6.60;99.90
67163;DHT22;54092;53.088;8.850;2023-03-01T09:04:38;7.30;99.90
67163;DHT22;54092;53.088;8.850;2023-03-01T09:07:04;8.00;99.90
67163;DHT22;54092;53.088;8.850;2023-03-01T09:09:29;8.50;99.90
67163;DHT22;54092;53.088;8.850;2023-03-01T09:11:55;8.60;99.90
67163;DHT22;54092;53.088;8.850;2023-03-01T09:14:20;9.00;99.90
67163;DHT22;54092;53.088;8.850;2023-03-01T09:16:46;9.30;99.90
67163;DHT22;54092;53.088;8.850;2023-03-01T09:19:12;9.60;99.90
67163;DHT22;54092;53.088;8.850;2023-03-01T09:21:38;10.00;99.90
67163;DHT22;54092;53.088;8.850;2023-03-01T09:24:03;10.20;99.90
67163;DHT22;54092;53.088;8.850;2023-03-01T09:26:29;10.70;99.90
67163;DHT22;54092;53.088;8.850;2023-03-01T09:28:55;10.60;99.90
67163;DHT22;54092;53.088;8.850;2023-03-01T09:31:22;10.30;99.90
67163;DHT22;54092;53.088;8.850;2023-03-01T09:33:50;10.60;99.90
67163;DHT22;54092;53.088;8.850;2023-03-01T09:36:18;11.30;99.90
67163;DHT22;54092;53.088;8.850;2023-03-01T09:38:44;11.80;99.90
67163;DHT22;54092;53.088;8.850;2023-03-01T09:43:46;11.20;99.90
67163;DHT22;54092;53.088;8.850;2023-03-01T09:46:14;10.80;99.90
67163;DHT22;54092;53.088;8.850;2023-03-01T09:48:49;10.10;99.90
67163;DHT22;54092;53.088;8.850;2023-03-01T09:51:19;9.90;99.90
67163;DHT22;54092;53.088;8.850;2023-03-01T09:53:47;10.10;99.90
67163;DHT22;54092;53.088;8.850;2023-03-01T09:56:18;11.00;99.90
67163;DHT22;54092;53.088;8.850;2023-03-01T09:58:59;12.40;99.90
67163;DHT22;54092;53.088;8.850;2023-03-01T10:01:40;13.10;99.90
67163;DHT22;54092;53.088;8.850;2023-03-01T10:09:52;13.80;99.90
67163;DHT22;54092;53.088;8.850;2023-03-01T10:12:22;13.60;99.90
67163;DHT22;54092;53.088;8.850;2023-03-01T10:15:04;13.50;99.90
67163;DHT22;54092;53.088;8.850;2023-03-01T10:20:24;13.90;99.90
67163;DHT22;54092;53.088;8.850;2023-03-01T10:22:51;14.30;99.90
67163;DHT22;54092;53.088;8.850;2023-03-01T10:28:30;15.20;99.90
67163;DHT22;54092;53.088;8.850;2023-03-01T10:30:57;15.10;99.90
67163;DHT22;54092;53.088;8.850;2023-03-01T10:33:27;14.30;99.90
67163;DHT22;54092;53.088;8.850;2023-03-01T10:35:53;14.30;99.90
67163;DHT22;54092;53.088;8.850;2023-03-01T10:38:20;14.60;99.90
67163;DHT22;54092;53.088;8.850;2023-03-01T10:40:57;14.40;99.90
67163;DHT22;54092;53.088;8.850;2023-03-01T10:43:25;14.00;99.90
67163;DHT22;54092;53.088;8.850;2023-03-01T10:45:51;13.90;99.90
67163;DHT22;54092;53.088;8.850;2023-03-01T10:48:22;14.10;99.90
67163;DHT22;54092;53.088;8.850;2023-03-01T10:53:48;13.70;99.90
67163;DHT22;54092;53.088;8.850;2023-03-01T10:56:11;13.40;99.90
67163;DHT22;54092;53.088;8.850;2023-03-01T10:58:40;13.80;99.90
67163;DHT22;54092;53.088;8.850;2023-03-01T11:03:40;15.20;99.90
67163;DHT22;54092;53.088;8.850;2023-03-01T11:06:21;15.20;99.90
67163;DHT22;54092;53.088;8.850;2023-03-01T11:08:49;14.70;99.90
67163;DHT22;54092;53.088;8.850;2023-03-01T11:11:20;14.00;99.90
67163;DHT22;54092;53.088;8.850;2023-03-01T11:16:27;11.30;99.90
67163;DHT22;54092;53.088;8.850;2023-03-01T11:24:12;10.80;99.90
67163;DHT22;54092;53.088;8.850;2023-03-01T11:26:40;10.60;99.90
67163;DHT22;54092;53.088;8.850;2023-03-01T11:29:30;11.60;99.90
67163;DHT22;54092;53.088;8.850;2023-03-01T11:32:00;12.10;99.90
67163;DHT22;54092;53.088;8.850;2023-03-01T11:34:38;11.90;99.90
67163;DHT22;54092;53.088;8.850;2023-03-01T11:40:00;11.60;99.90
67163;DHT22;54092;53.088;8.850;2023-03-01T11:45:12;12.70;99.90
67163;DHT22;54092;53.088;8.850;2023-03-01T11:50:16;13.20;99.90
67163;DHT22;54092;53.088;8.850;2023-03-01T11:55:36;13.40;99.90
67163;DHT22;54092;53.088;8.850;2023-03-01T12:01:25;14.10;99.90
67163;DHT22;54092;53.088;8.850;2023-03-01T12:04:18;14.10;99.90
67163;DHT22;54092;53.088;8.850;2023-03-01T12:06:57;14.60;99.90
67163;DHT22;54092;53.088;8.850;2023-03-01T12:12:28;13.90;99.90
67163;DHT22;54092;53.088;8.850;2023-03-01T12:15:33;13.50;99.90
67163;DHT22;54092;53.088;8.850;2023-03-01T12:18:25;13.10;99.90
67163;DHT22;54092;53.088;8.850;2023-03-01T12:21:06;12.50;99.90
67163;DHT22;54092;53.088;8.850;2023-03-01T12:24:01;11.30;99.90
67163;DHT22;54092;53.088;8.850;2023-03-01T12:26:36;11.20;99.90
67163;DHT22;54092;53.088;8.850;2023-03-01T12:32:24;13.70;99.90
67163;DHT22;54092;53.088;8.850;2023-03-01T12:38:10;14.90;99.90
67163;DHT22;54092;53.088;8.850;2023-03-01T12:40:53;15.50;99.90
67163;DHT22;54092;53.088;8.850;2023-03-01T12:46:41;15.50;99.90
67163;DHT22;54092;53.088;8.850;2023-03-01T12:52:19;13.90;99.90
67163;DHT22;54092;53.088;8.850;2023-03-01T12:54:47;13.60;99.90
67163;DHT22;54092;53.088;8.850;2023-03-01T12:57:44;13.90;99.90
67163;DHT22;54092;53.088;8.850;2023-03-01T13:00:38;13.70;99.90
67163;DHT22;54092;53.088;8.850;2023-03-01T13:03:29;13.00;99.90
67163;DHT22;54092;53.088;8.850;2023-03-01T13:06:12;13.50;99.90
67163;DHT22;54092;53.088;8.850;2023-03-01T13:08:49;13.80;99.90
67163;DHT22;54092;53.088;8.850;2023-03-01T13:11:20;14.30;99.90
67163;DHT22;54092;53.088;8.850;2023-03-01T13:13:47;15.00;99.90
67163;DHT22;54092;53.088;8.850;2023-03-01T13:19:13;14.40;99.90
67163;DHT22;54092;53.088;8.850;2023-03-01T13:21:41;15.00;99.90
67163;DHT22;54092;53.088;8.850;2023-03-01T13:24:37;15.40;99.90
67163;DHT22;54092;53.088;8.850;2023-03-01T13:29:48;16.40;99.90
67163;DHT22;54092;53.088;8.850;2023-03-01T13:34:52;16.70;99.90
67163;DHT22;54092;53.088;8.850;2023-03-01T13:37:23;15.40;99.90
67163;DHT22;54092;53.088;8.850;2023-03-01T13:39:55;15.30;99.90
67163;DHT22;54092;53.088;8.850;2023-03-01T13:42:38;15.60;99.90
67163;DHT22;54092;53.088;8.850;2023-03-01T13:45:51;15.30;99.90
67163;DHT22;54092;53.088;8.850;2023-03-01T13:47:58;15.00;99.90
67163;DHT22;54092;53.088;8.850;2023-03-01T13:50:36;15.00;99.90
67163;DHT22;54092;53.088;8.850;2023-03-01T13:53:05;15.30;99.90
67163;DHT22;54092;53.088;8.850;2023-03-01T13:55:41;15.30;99.90
67163;DHT22;54092;53.088;8.850;2023-03-01T13:58:25;15.30;99.90
67163;DHT22;54092;53.088;8.850;2023-03-01T14:01:00;14.90;99.90
67163;DHT22;54092;53.088;8.850;2023-03-01T14:03:26;14.20;99.90
67163;DHT22;54092;53.088;8.850;2023-03-01T14:05:59;13.90;99.90
67163;DHT22;54092;53.088;8.850;2023-03-01T14:08:27;14.10;99.90
67163;DHT22;54092;53.088;8.850;2023-03-01T14:11:07;14.90;99.90
67163;DHT22;54092;53.088;8.850;2023-03-01T14:14:37;15.30;99.90
67163;DHT22;54092;53.088;8.850;2023-03-01T14:17:06;14.90;99.90
67163;DHT22;54092;53.088;8.850;2023-03-01T14:19:35;14.10;99.90
67163;DHT22;54092;53.088;8.850;2023-03-01T14:22:28;14.10;99.90
67163;DHT22;54092;53.088;8.850;2023-03-01T14:24:59;13.50;99.90
67163;DHT22;54092;53.088;8.850;2023-03-01T14:27:37;13.20;99.90
67163;DHT22;54092;53.088;8.850;2023-03-01T14:30:12;12.50;99.90
67163;DHT22;54092;53.088;8.850;2023-03-01T14:32:40;11.50;99.90
67163;DHT22;54092;53.088;8.850;2023-03-01T14:35:27;11.30;99.90
67163;DHT22;54092;53.088;8.850;2023-03-01T14:37:52;11.30;99.90
67163;DHT22;54092;53.088;8.850;2023-03-01T14:40:36;11.20;99.90
67163;DHT22;54092;53.088;8.850;2023-03-01T14:43:09;11.30;99.90
67163;DHT22;54092;53.088;8.850;2023-03-01T14:45:35;11.40;99.90
67163;DHT22;54092;53.088;8.850;2023-03-01T14:48:03;11.20;99.90
67163;DHT22;54092;53.088;8.850;2023-03-01T14:50:32;10.80;99.90
67163;DHT22;54092;53.088;8.850;2023-03-01T14:53:05;10.50;99.90
67163;DHT22;54092;53.088;8.850;2023-03-01T14:55:38;10.40;99.90
67163;DHT22;54092;53.088;8.850;2023-03-01T14:58:12;10.50;99.90
67163;DHT22;54092;53.088;8.850;2023-03-01T15:00:39;10.50;99.90
67163;DHT22;54092;53.088;8.850;2023-03-01T15:03:27;10.50;99.90
67163;DHT22;54092;53.088;8.850;2023-03-01T15:05:56;10.30;99.90
67163;DHT22;54092;53.088;8.850;2023-03-01T15:08:25;10.20;99.90
67163;DHT22;54092;53.088;8.850;2023-03-01T15:11:17;10.40;99.90
67163;DHT22;54092;53.088;8.850;2023-03-01T15:13:44;10.40;99.90
67163;DHT22;54092;53.088;8.850;2023-03-01T15:16:31;10.70;99.90
67163;DHT22;54092;53.088;8.850;2023-03-01T15:19:00;10.80;99.90
67163;DHT22;54092;53.088;8.850;2023-03-01T15:21:32;10.70;99.90
67163;DHT22;54092;53.088;8.850;2023-03-01T15:26:58;10.40;99.90
67163;DHT22;54092;53.088;8.850;2023-03-01T15:29:29;10.30;99.90
67163;DHT22;54092;53.088;8.850;2023-03-01T15:32:04;10.10;99.90
67163;DHT22;54092;53.088;8.850;2023-03-01T15:34:34;9.70;99.90
67163;DHT22;54092;53.088;8.850;2023-03-01T15:37:01;9.70;99.90
67163;DHT22;54092;53.088;8.850;2023-03-01T15:39:56;9.40;99.90
67163;DHT22;54092;53.088;8.850;2023-03-01T15:47:48;9.10;99.90
67163;DHT22;54092;53.088;8.850;2023-03-01T15:50:19;9.00;99.90
67163;DHT22;54092;53.088;8.850;2023-03-01T15:52:46;9.10;99.90
67163;DHT22;54092;53.088;8.850;2023-03-01T15:55:19;9.10;99.90
67163;DHT22;54092;53.088;8.850;2023-03-01T15:57:45;9.00;99.90
67163;DHT22;54092;53.088;8.850;2023-03-01T16:00:12;9.00;99.90
67163;DHT22;54092;53.088;8.850;2023-03-01T16:02:39;8.80;99.90
67163;DHT22;54092;53.088;8.850;2023-03-01T16:05:09;8.70;99.90
67163;DHT22;54092;53.088;8.850;2023-03-01T16:07:38;8.60;99.90
67163;DHT22;54092;53.088;8.850;2023-03-01T16:10:05;8.60;99.90
67163;DHT22;54092;53.088;8.850;2023-03-01T16:12:30;8.50;99.90
67163;DHT22;54092;53.088;8.850;2023-03-01T16:14:56;8.40;99.90
67163;DHT22;54092;53.088;8.850;2023-03-01T16:17:22;8.30;99.90
67163;DHT22;54092;53.088;8.850;2023-03-01T16:19:48;8.30;99.90
67163;DHT22;54092;53.088;8.850;2023-03-01T16:22:13;8.20;99.90
67163;DHT22;54092;53.088;8.850;2023-03-01T16:24:39;8.20;99.90
67163;DHT22;54092;53.088;8.850;2023-03-01T16:27:06;8.10;99.90
67163;DHT22;54092;53.088;8.850;2023-03-01T16:29:32;8.10;99.90
67163;DHT22;54092;53.088;8.850;2023-03-01T16:32:00;8.00;99.90
67163;DHT22;54092;53.088;8.850;2023-03-01T16:34:26;8.00;99.90
67163;DHT22;54092;53.088;8.850;2023-03-01T16:36:52;7.90;99.90
67163;DHT22;54092;53.088;8.850;2023-03-01T16:39:17;7.90;99.90
67163;DHT22;54092;53.088;8.850;2023-03-01T16:41:43;7.80;99.90
67163;DHT22;54092;53.088;8.850;2023-03-01T16:44:08;7.80;99.90
67163;DHT22;54092;53.088;8.850;2023-03-01T16:46:34;7.70;99.90
67163;DHT22;54092;53.088;8.850;2023-03-01T16:48:59;7.60;99.90
67163;DHT22;54092;53.088;8.850;2023-03-01T16:51:25;7.40;99.90
67163;DHT22;54092;53.088;8.850;2023-03-01T16:53:51;7.30;99.90
67163;DHT22;54092;53.088;8.850;2023-03-01T16:56:17;7.20;99.90
67163;DHT22;54092;53.088;8.850;2023-03-01T16:58:44;7.10;99.90
67163;DHT22;54092;53.088;8.850;2023-03-01T17:01:16;7.00;99.90
67163;DHT22;54092;53.088;8.850;2023-03-01T17:03:42;6.90;99.90
67163;DHT22;54092;53.088;8.850;2023-03-01T17:06:12;6.80;99.90
67163;DHT22;54092;53.088;8.850;2023-03-01T17:08:38;6.80;99.90
67163;DHT22;54092;53.088;8.850;2023-03-01T17:11:14;6.70;99.90